sensor_id;sensor_type;location;lat;lon;timestamp;P1;durP1;ratioP1;P2;durP2;ratioP2
41861;SDS011;27537;57.134;-2.136;2022-07-23T00:00:15;4.57;;;1.50;;
41861;SDS011;27537;57.134;-2.136;2022-07-23T00:02:42;4.75;;;1.27;;
41861;SDS011;27537;57.134;-2.136;2022-07-23T00:05:09;6.57;;;2.10;;
41861;SDS011;27537;57.134;-2.136;2022-07-23T00:07:36;4.25;;;1.38;;
41861;SDS011;27537;57.134;-2.136;2022-07-23T00:10:03;4.43;;;1.40;;
41861;SDS011;27537;57.134;-2.136;2022-07-23T00:12:30;5.50;;;1.45;;
41861;SDS011;27537;57.134;-2.136;2022-07-23T00:14:57;5.80;;;1.60;;
41861;SDS011;27537;57.134;-2.136;2022-07-23T00:17:24;4.30;;;1.38;;
41861;SDS011;27537;57.134;-2.136;2022-07-23T00:19:51;7.25;;;1.60;;
41861;SDS011;27537;57.134;-2.136;2022-07-23T00:22:19;8.32;;;1.65;;
41861;SDS011;27537;57.134;-2.136;2022-07-23T00:24:46;4.13;;;1.60;;
41861;SDS011;27537;57.134;-2.136;2022-07-23T00:27:32;5.72;;;1.85;;
41861;SDS011;27537;57.134;-2.136;2022-07-23T00:29:59;5.13;;;1.70;;
41861;SDS011;27537;57.134;-2.136;2022-07-23T00:32:26;4.28;;;1.40;;
41861;SDS011;27537;57.134;-2.136;2022-07-23T00:35:14;4.45;;;1.52;;
41861;SDS011;27537;57.134;-2.136;2022-07-23T00:37:41;3.63;;;1.27;;
41861;SDS011;27537;57.134;-2.136;2022-07-23T00:40:08;4.65;;;1.50;;
41861;SDS011;27537;57.134;-2.136;2022-07-23T00:42:36;5.63;;;1.60;;
41861;SDS011;27537;57.134;-2.136;2022-07-23T00:45:03;3.47;;;1.50;;
41861;SDS011;27537;57.134;-2.136;2022-07-23T00:47:31;6.80;;;1.60;;
41861;SDS011;27537;57.134;-2.136;2022-07-23T00:49:58;4.88;;;1.63;;
41861;SDS011;27537;57.134;-2.136;2022-07-23T00:52:25;3.90;;;1.58;;
41861;SDS011;27537;57.134;-2.136;2022-07-23T00:54:52;5.07;;;1.50;;
41861;SDS011;27537;57.134;-2.136;2022-07-23T00:57:18;6.70;;;1.83;;
41861;SDS011;27537;57.134;-2.136;2022-07-23T01:02:18;4.40;;;1.60;;
41861;SDS011;27537;57.134;-2.136;2022-07-23T01:04:45;3.40;;;1.30;;
41861;SDS011;27537;57.134;-2.136;2022-07-23T01:07:12;4.22;;;1.50;;
41861;SDS011;27537;57.134;-2.136;2022-07-23T01:09:39;5.05;;;1.55;;
41861;SDS011;27537;57.134;-2.136;2022-07-23T01:12:06;8.40;;;2.00;;
41861;SDS011;27537;57.134;-2.136;2022-07-23T01:14:33;3.92;;;1.38;;
41861;SDS011;27537;57.134;-2.136;2022-07-23T01:17:00;4.45;;;1.63;;
41861;SDS011;27537;57.134;-2.136;2022-07-23T01:19:27;9.68;;;1.73;;
41861;SDS011;27537;57.134;-2.136;2022-07-23T01:21:54;7.10;;;2.03;;
41861;SDS011;27537;57.134;-2.136;2022-07-23T01:24:23;5.90;;;1.30;;
41861;SDS011;27537;57.134;-2.136;2022-07-23T01:26:50;5.47;;;1.40;;
41861;SDS011;27537;57.134;-2.136;2022-07-23T01:29:17;3.97;;;1.60;;
41861;SDS011;27537;57.134;-2.136;2022-07-23T01:31:45;8.27;;;2.00;;
41861;SDS011;27537;57.134;-2.136;2022-07-23T01:34:11;6.78;;;1.75;;
41861;SDS011;27537;57.134;-2.136;2022-07-23T01:36:38;6.03;;;1.65;;
41861;SDS011;27537;57.134;-2.136;2022-07-23T01:39:06;6.78;;;1.70;;
41861;SDS011;27537;57.134;-2.136;2022-07-23T01:41:34;11.40;;;1.75;;
41861;SDS011;27537;57.134;-2.136;2022-07-23T01:44:01;4.22;;;1.52;;
41861;SDS011;27537;57.134;-2.136;2022-07-23T01:46:28;3.95;;;1.52;;
41861;SDS011;27537;57.134;-2.136;2022-07-23T01:48:54;5.80;;;1.48;;
41861;SDS011;27537;57.134;-2.136;2022-07-23T01:51:21;5.85;;;1.77;;
41861;SDS011;27537;57.134;-2.136;2022-07-23T01:53:48;5.70;;;1.80;;
41861;SDS011;27537;57.134;-2.136;2022-07-23T01:56:15;5.00;;;1.80;;
41861;SDS011;27537;57.134;-2.136;2022-07-23T01:58:42;7.30;;;2.00;;
41861;SDS011;27537;57.134;-2.136;2022-07-23T02:01:09;5.65;;;1.77;;
41861;SDS011;27537;57.134;-2.136;2022-07-23T02:03:36;5.35;;;1.70;;
41861;SDS011;27537;57.134;-2.136;2022-07-23T02:06:02;4.60;;;1.50;;
41861;SDS011;27537;57.134;-2.136;2022-07-23T02:08:29;4.38;;;1.60;;
41861;SDS011;27537;57.134;-2.136;2022-07-23T02:10:56;5.30;;;1.30;;
41861;SDS011;27537;57.134;-2.136;2022-07-23T02:13:23;4.07;;;1.50;;
41861;SDS011;27537;57.134;-2.136;2022-07-23T02:15:50;2.83;;;1.27;;
41861;SDS011;27537;57.134;-2.136;2022-07-23T02:18:17;6.03;;;1.70;;
41861;SDS011;27537;57.134;-2.136;2022-07-23T02:20:43;5.88;;;1.98;;
41861;SDS011;27537;57.134;-2.136;2022-07-23T02:23:11;5.70;;;1.90;;
41861;SDS011;27537;57.134;-2.136;2022-07-23T02:25:37;5.93;;;1.90;;
41861;SDS011;27537;57.134;-2.136;2022-07-23T02:28:05;5.88;;;1.60;;
41861;SDS011;27537;57.134;-2.136;2022-07-23T02:30:32;7.93;;;1.63;;
41861;SDS011;27537;57.134;-2.136;2022-07-23T02:32:59;5.05;;;1.30;;
41861;SDS011;27537;57.134;-2.136;2022-07-23T02:35:25;7.65;;;1.80;;
41861;SDS011;27537;57.134;-2.136;2022-07-23T02:37:52;4.40;;;1.50;;
41861;SDS011;27537;57.134;-2.136;2022-07-23T02:40:19;8.15;;;1.70;;
41861;SDS011;27537;57.134;-2.136;2022-07-23T02:42:46;5.03;;;1.25;;
41861;SDS011;27537;57.134;-2.136;2022-07-23T02:45:12;8.05;;;1.60;;
41861;SDS011;27537;57.134;-2.136;2022-07-23T02:47:39;3.72;;;1.48;;
41861;SDS011;27537;57.134;-2.136;2022-07-23T02:50:06;4.50;;;1.60;;
41861;SDS011;27537;57.134;-2.136;2022-07-23T02:52:33;5.68;;;1.75;;
41861;SDS011;27537;57.134;-2.136;2022-07-23T02:55:00;4.20;;;1.50;;
41861;SDS011;27537;57.134;-2.136;2022-07-23T02:57:27;4.93;;;1.48;;
41861;SDS011;27537;57.134;-2.136;2022-07-23T02:59:54;5.55;;;1.67;;
41861;SDS011;27537;57.134;-2.136;2022-07-23T03:02:21;5.57;;;1.40;;
41861;SDS011;27537;57.134;-2.136;2022-07-23T03:04:47;4.95;;;1.70;;
41861;SDS011;27537;57.134;-2.136;2022-07-23T03:07:16;3.80;;;1.50;;
41861;SDS011;27537;57.134;-2.136;2022-07-23T03:09:45;5.32;;;1.60;;
41861;SDS011;27537;57.134;-2.136;2022-07-23T03:12:12;3.25;;;1.45;;
41861;SDS011;27537;57.134;-2.136;2022-07-23T03:14:40;6.55;;;1.92;;
41861;SDS011;27537;57.134;-2.136;2022-07-23T03:17:07;5.90;;;1.88;;
41861;SDS011;27537;57.134;-2.136;2022-07-23T03:19:34;4.85;;;1.45;;
41861;SDS011;27537;57.134;-2.136;2022-07-23T03:22:01;4.55;;;1.40;;
41861;SDS011;27537;57.134;-2.136;2022-07-23T03:24:28;5.10;;;1.67;;
41861;SDS011;27537;57.134;-2.136;2022-07-23T03:27:13;4.65;;;1.52;;
41861;SDS011;27537;57.134;-2.136;2022-07-23T03:29:40;4.47;;;1.50;;
41861;SDS011;27537;57.134;-2.136;2022-07-23T03:32:07;6.38;;;1.30;;
41861;SDS011;27537;57.134;-2.136;2022-07-23T03:34:37;6.30;;;1.48;;
41861;SDS011;27537;57.134;-2.136;2022-07-23T03:37:03;3.90;;;1.40;;
41861;SDS011;27537;57.134;-2.136;2022-07-23T03:39:31;6.15;;;1.70;;
41861;SDS011;27537;57.134;-2.136;2022-07-23T03:41:58;5.97;;;1.58;;
41861;SDS011;27537;57.134;-2.136;2022-07-23T03:44:30;4.10;;;1.67;;
41861;SDS011;27537;57.134;-2.136;2022-07-23T03:46:57;4.30;;;1.40;;
41861;SDS011;27537;57.134;-2.136;2022-07-23T03:49:24;4.72;;;1.55;;
41861;SDS011;27537;57.134;-2.136;2022-07-23T03:51:51;4.85;;;1.60;;
41861;SDS011;27537;57.134;-2.136;2022-07-23T03:54:18;5.13;;;1.50;;
41861;SDS011;27537;57.134;-2.136;2022-07-23T03:56:44;6.70;;;1.60;;
41861;SDS011;27537;57.134;-2.136;2022-07-23T03:59:11;4.40;;;1.50;;
41861;SDS011;27537;57.134;-2.136;2022-07-23T04:01:39;4.25;;;1.40;;
41861;SDS011;27537;57.134;-2.136;2022-07-23T04:04:05;5.32;;;1.60;;
41861;SDS011;27537;57.134;-2.136;2022-07-23T04:06:34;5.68;;;1.45;;
41861;SDS011;27537;57.134;-2.136;2022-07-23T04:09:02;4.80;;;1.58;;
41861;SDS011;27537;57.134;-2.136;2022-07-23T04:11:30;10.15;;;1.67;;
41861;SDS011;27537;57.134;-2.136;2022-07-23T04:13:57;6.18;;;1.48;;
41861;SDS011;27537;57.134;-2.136;2022-07-23T04:16:24;3.53;;;1.27;;
41861;SDS011;27537;57.134;-2.136;2022-07-23T04:18:50;3.22;;;1.20;;
41861;SDS011;27537;57.134;-2.136;2022-07-23T04:21:17;4.05;;;1.27;;
41861;SDS011;27537;57.134;-2.136;2022-07-23T04:23:44;5.65;;;1.70;;
41861;SDS011;27537;57.134;-2.136;2022-07-23T04:26:10;4.88;;;1.55;;
41861;SDS011;27537;57.134;-2.136;2022-07-23T04:28:43;5.72;;;1.83;;
41861;SDS011;27537;57.134;-2.136;2022-07-23T04:31:09;6.65;;;1.95;;
41861;SDS011;27537;57.134;-2.136;2022-07-23T04:33:36;7.00;;;1.63;;
41861;SDS011;27537;57.134;-2.136;2022-07-23T04:36:03;5.93;;;1.70;;
41861;SDS011;27537;57.134;-2.136;2022-07-23T04:38:30;6.90;;;2.05;;
41861;SDS011;27537;57.134;-2.136;2022-07-23T04:40:58;7.00;;;2.00;;
41861;SDS011;27537;57.134;-2.136;2022-07-23T04:43:25;8.25;;;2.42;;
41861;SDS011;27537;57.134;-2.136;2022-07-23T04:45:52;6.78;;;1.98;;
41861;SDS011;27537;57.134;-2.136;2022-07-23T04:48:19;7.32;;;2.47;;
41861;SDS011;27537;57.134;-2.136;2022-07-23T04:50:46;5.47;;;1.98;;
41861;SDS011;27537;57.134;-2.136;2022-07-23T04:53:13;6.38;;;1.63;;
41861;SDS011;27537;57.134;-2.136;2022-07-23T04:55:40;4.97;;;1.55;;
41861;SDS011;27537;57.134;-2.136;2022-07-23T04:58:06;5.18;;;1.73;;
41861;SDS011;27537;57.134;-2.136;2022-07-23T05:00:33;7.57;;;1.80;;
41861;SDS011;27537;57.134;-2.136;2022-07-23T05:03:00;4.38;;;1.70;;
41861;SDS011;27537;57.134;-2.136;2022-07-23T05:05:27;4.15;;;1.55;;
41861;SDS011;27537;57.134;-2.136;2022-07-23T05:07:54;5.45;;;1.60;;
41861;SDS011;27537;57.134;-2.136;2022-07-23T05:10:21;5.10;;;1.58;;
41861;SDS011;27537;57.134;-2.136;2022-07-23T05:12:52;6.22;;;2.13;;
41861;SDS011;27537;57.134;-2.136;2022-07-23T05:15:18;8.82;;;2.00;;
41861;SDS011;27537;57.134;-2.136;2022-07-23T05:17:45;4.38;;;1.60;;
41861;SDS011;27537;57.134;-2.136;2022-07-23T05:20:12;7.55;;;2.00;;
41861;SDS011;27537;57.134;-2.136;2022-07-23T05:22:39;5.82;;;1.98;;
41861;SDS011;27537;57.134;-2.136;2022-07-23T05:25:07;6.15;;;2.00;;
41861;SDS011;27537;57.134;-2.136;2022-07-23T05:27:34;6.88;;;1.70;;
41861;SDS011;27537;57.134;-2.136;2022-07-23T05:30:01;7.03;;;2.13;;
41861;SDS011;27537;57.134;-2.136;2022-07-23T05:32:27;6.80;;;1.70;;
41861;SDS011;27537;57.134;-2.136;2022-07-23T05:34:54;7.15;;;2.15;;
41861;SDS011;27537;57.134;-2.136;2022-07-23T05:37:21;4.85;;;1.40;;
41861;SDS011;27537;57.134;-2.136;2022-07-23T05:39:48;7.68;;;2.33;;
41861;SDS011;27537;57.134;-2.136;2022-07-23T05:42:14;8.43;;;1.85;;
41861;SDS011;27537;57.134;-2.136;2022-07-23T05:44:41;6.30;;;2.08;;
41861;SDS011;27537;57.134;-2.136;2022-07-23T05:47:08;5.38;;;1.60;;
41861;SDS011;27537;57.134;-2.136;2022-07-23T05:49:36;4.03;;;1.40;;
41861;SDS011;27537;57.134;-2.136;2022-07-23T05:52:05;6.65;;;2.00;;
41861;SDS011;27537;57.134;-2.136;2022-07-23T05:54:34;5.78;;;1.73;;
41861;SDS011;27537;57.134;-2.136;2022-07-23T05:57:02;4.57;;;1.50;;
41861;SDS011;27537;57.134;-2.136;2022-07-23T05:59:29;8.60;;;2.40;;
41861;SDS011;27537;57.134;-2.136;2022-07-23T06:01:56;10.43;;;1.90;;
41861;SDS011;27537;57.134;-2.136;2022-07-23T06:04:23;6.40;;;1.77;;
41861;SDS011;27537;57.134;-2.136;2022-07-23T06:06:50;6.65;;;1.98;;
41861;SDS011;27537;57.134;-2.136;2022-07-23T06:09:17;5.32;;;1.63;;
41861;SDS011;27537;57.134;-2.136;2022-07-23T06:11:44;5.00;;;1.52;;
41861;SDS011;27537;57.134;-2.136;2022-07-23T06:14:12;9.13;;;2.13;;
41861;SDS011;27537;57.134;-2.136;2022-07-23T06:16:38;10.27;;;2.15;;
41861;SDS011;27537;57.134;-2.136;2022-07-23T06:19:05;4.20;;;1.58;;
41861;SDS011;27537;57.134;-2.136;2022-07-23T06:21:33;6.28;;;2.10;;
41861;SDS011;27537;57.134;-2.136;2022-07-23T06:24:15;6.73;;;2.17;;
41861;SDS011;27537;57.134;-2.136;2022-07-23T06:26:47;5.60;;;1.67;;
41861;SDS011;27537;57.134;-2.136;2022-07-23T06:29:14;5.65;;;2.05;;
41861;SDS011;27537;57.134;-2.136;2022-07-23T06:31:43;7.93;;;1.83;;
41861;SDS011;27537;57.134;-2.136;2022-07-23T06:34:24;6.97;;;1.95;;
41861;SDS011;27537;57.134;-2.136;2022-07-23T06:36:51;7.18;;;1.70;;
41861;SDS011;27537;57.134;-2.136;2022-07-23T06:39:21;5.68;;;2.03;;
41861;SDS011;27537;57.134;-2.136;2022-07-23T06:41:52;4.60;;;1.98;;
41861;SDS011;27537;57.134;-2.136;2022-07-23T06:47:07;5.40;;;1.92;;
41861;SDS011;27537;57.134;-2.136;2022-07-23T06:49:34;6.07;;;1.85;;
41861;SDS011;27537;57.134;-2.136;2022-07-23T06:52:01;5.07;;;1.60;;
41861;SDS011;27537;57.134;-2.136;2022-07-23T06:54:28;7.18;;;1.67;;
41861;SDS011;27537;57.134;-2.136;2022-07-23T06:56:55;4.43;;;1.30;;
41861;SDS011;27537;57.134;-2.136;2022-07-23T06:59:23;5.57;;;1.48;;
41861;SDS011;27537;57.134;-2.136;2022-07-23T07:01:50;6.68;;;1.73;;
41861;SDS011;27537;57.134;-2.136;2022-07-23T07:04:17;5.97;;;1.65;;
41861;SDS011;27537;57.134;-2.136;2022-07-23T07:06:45;8.52;;;1.77;;
41861;SDS011;27537;57.134;-2.136;2022-07-23T07:09:12;6.65;;;2.05;;
41861;SDS011;27537;57.134;-2.136;2022-07-23T07:11:38;7.82;;;1.63;;
41861;SDS011;27537;57.134;-2.136;2022-07-23T07:14:05;4.93;;;1.70;;
41861;SDS011;27537;57.134;-2.136;2022-07-23T07:16:32;6.28;;;1.80;;
41861;SDS011;27537;57.134;-2.136;2022-07-23T07:18:59;7.30;;;2.10;;
41861;SDS011;27537;57.134;-2.136;2022-07-23T07:21:27;7.43;;;2.15;;
41861;SDS011;27537;57.134;-2.136;2022-07-23T07:23:54;7.40;;;1.95;;
41861;SDS011;27537;57.134;-2.136;2022-07-23T07:26:21;9.80;;;2.15;;
41861;SDS011;27537;57.134;-2.136;2022-07-23T07:28:48;7.38;;;1.73;;
41861;SDS011;27537;57.134;-2.136;2022-07-23T07:31:15;4.53;;;1.60;;
41861;SDS011;27537;57.134;-2.136;2022-07-23T07:33:42;7.85;;;1.77;;
41861;SDS011;27537;57.134;-2.136;2022-07-23T07:36:10;5.50;;;1.88;;
41861;SDS011;27537;57.134;-2.136;2022-07-23T07:38:44;7.00;;;1.83;;
41861;SDS011;27537;57.134;-2.136;2022-07-23T07:41:11;4.22;;;1.50;;
41861;SDS011;27537;57.134;-2.136;2022-07-23T07:43:40;5.20;;;1.60;;
41861;SDS011;27537;57.134;-2.136;2022-07-23T07:46:06;7.13;;;2.05;;
41861;SDS011;27537;57.134;-2.136;2022-07-23T07:48:36;8.82;;;2.10;;
41861;SDS011;27537;57.134;-2.136;2022-07-23T07:51:04;7.13;;;1.80;;
41861;SDS011;27537;57.134;-2.136;2022-07-23T07:53:31;8.32;;;2.30;;
41861;SDS011;27537;57.134;-2.136;2022-07-23T07:55:58;6.47;;;1.85;;
41861;SDS011;27537;57.134;-2.136;2022-07-23T07:58:25;3.88;;;1.48;;
41861;SDS011;27537;57.134;-2.136;2022-07-23T08:00:52;5.13;;;1.73;;
41861;SDS011;27537;57.134;-2.136;2022-07-23T08:03:19;7.30;;;2.08;;
41861;SDS011;27537;57.134;-2.136;2022-07-23T08:05:46;7.88;;;1.98;;
41861;SDS011;27537;57.134;-2.136;2022-07-23T08:08:13;10.73;;;2.20;;
41861;SDS011;27537;57.134;-2.136;2022-07-23T08:10:42;8.68;;;2.20;;
41861;SDS011;27537;57.134;-2.136;2022-07-23T08:13:12;9.45;;;2.60;;
41861;SDS011;27537;57.134;-2.136;2022-07-23T08:15:41;14.35;;;2.80;;
41861;SDS011;27537;57.134;-2.136;2022-07-23T08:18:09;6.32;;;2.10;;
41861;SDS011;27537;57.134;-2.136;2022-07-23T08:20:36;6.85;;;2.30;;
41861;SDS011;27537;57.134;-2.136;2022-07-23T08:23:04;9.10;;;2.50;;
41861;SDS011;27537;57.134;-2.136;2022-07-23T08:25:37;5.82;;;1.95;;
41861;SDS011;27537;57.134;-2.136;2022-07-23T08:28:06;5.82;;;2.03;;
41861;SDS011;27537;57.134;-2.136;2022-07-23T08:30:34;12.13;;;2.40;;
41861;SDS011;27537;57.134;-2.136;2022-07-23T08:33:04;7.60;;;2.20;;
41861;SDS011;27537;57.134;-2.136;2022-07-23T08:35:58;7.60;;;2.33;;
41861;SDS011;27537;57.134;-2.136;2022-07-23T08:38:25;7.18;;;1.90;;
41861;SDS011;27537;57.134;-2.136;2022-07-23T08:40:53;8.65;;;2.50;;
41861;SDS011;27537;57.134;-2.136;2022-07-23T08:43:25;8.70;;;2.30;;
41861;SDS011;27537;57.134;-2.136;2022-07-23T08:45:55;12.13;;;2.50;;
41861;SDS011;27537;57.134;-2.136;2022-07-23T08:48:28;10.25;;;3.10;;
41861;SDS011;27537;57.134;-2.136;2022-07-23T08:50:57;9.10;;;2.58;;
41861;SDS011;27537;57.134;-2.136;2022-07-23T08:53:27;10.18;;;3.63;;
41861;SDS011;27537;57.134;-2.136;2022-07-23T08:55:56;5.18;;;1.85;;
41861;SDS011;27537;57.134;-2.136;2022-07-23T08:58:24;8.13;;;2.28;;
41861;SDS011;27537;57.134;-2.136;2022-07-23T09:00:54;11.65;;;2.70;;
41861;SDS011;27537;57.134;-2.136;2022-07-23T09:03:24;10.23;;;3.20;;
41861;SDS011;27537;57.134;-2.136;2022-07-23T09:05:54;10.32;;;3.03;;
41861;SDS011;27537;57.134;-2.136;2022-07-23T09:08:26;13.05;;;2.75;;
41861;SDS011;27537;57.134;-2.136;2022-07-23T09:11:03;11.50;;;3.42;;
41861;SDS011;27537;57.134;-2.136;2022-07-23T09:13:39;10.23;;;3.28;;
41861;SDS011;27537;57.134;-2.136;2022-07-23T09:18:51;10.55;;;2.83;;
41861;SDS011;27537;57.134;-2.136;2022-07-23T09:21:22;17.63;;;3.22;;
41861;SDS011;27537;57.134;-2.136;2022-07-23T09:23:59;11.07;;;3.42;;
41861;SDS011;27537;57.134;-2.136;2022-07-23T09:26:35;13.10;;;4.38;;
41861;SDS011;27537;57.134;-2.136;2022-07-23T09:34:22;8.75;;;3.03;;
41861;SDS011;27537;57.134;-2.136;2022-07-23T09:36:57;14.23;;;4.13;;
41861;SDS011;27537;57.134;-2.136;2022-07-23T09:39:34;14.70;;;4.60;;
41861;SDS011;27537;57.134;-2.136;2022-07-23T09:42:15;15.43;;;5.18;;
41861;SDS011;27537;57.134;-2.136;2022-07-23T09:44:44;10.00;;;3.78;;
41861;SDS011;27537;57.134;-2.136;2022-07-23T09:47:13;11.63;;;3.38;;
41861;SDS011;27537;57.134;-2.136;2022-07-23T09:49:59;11.57;;;3.83;;
41861;SDS011;27537;57.134;-2.136;2022-07-23T09:52:43;11.80;;;4.18;;
41861;SDS011;27537;57.134;-2.136;2022-07-23T09:55:17;15.65;;;3.55;;
41861;SDS011;27537;57.134;-2.136;2022-07-23T09:57:45;9.68;;;3.25;;
41861;SDS011;27537;57.134;-2.136;2022-07-23T10:00:16;12.63;;;3.33;;
41861;SDS011;27537;57.134;-2.136;2022-07-23T10:02:43;13.50;;;3.70;;
41861;SDS011;27537;57.134;-2.136;2022-07-23T10:05:12;17.67;;;4.75;;
41861;SDS011;27537;57.134;-2.136;2022-07-23T10:07:40;16.02;;;3.95;;
41861;SDS011;27537;57.134;-2.136;2022-07-23T10:10:09;14.73;;;3.85;;
41861;SDS011;27537;57.134;-2.136;2022-07-23T10:12:36;15.77;;;4.80;;
41861;SDS011;27537;57.134;-2.136;2022-07-23T10:17:37;9.48;;;2.50;;
41861;SDS011;27537;57.134;-2.136;2022-07-23T10:20:04;11.40;;;3.45;;
41861;SDS011;27537;57.134;-2.136;2022-07-23T10:22:35;8.07;;;2.50;;
41861;SDS011;27537;57.134;-2.136;2022-07-23T10:30:31;11.82;;;2.63;;
41861;SDS011;27537;57.134;-2.136;2022-07-23T10:36:19;11.75;;;3.10;;
41861;SDS011;27537;57.134;-2.136;2022-07-23T10:41:41;9.52;;;3.00;;
41861;SDS011;27537;57.134;-2.136;2022-07-23T10:46:35;9.27;;;3.13;;
41861;SDS011;27537;57.134;-2.136;2022-07-23T10:54:44;9.73;;;2.35;;
41861;SDS011;27537;57.134;-2.136;2022-07-23T10:57:29;10.85;;;2.55;;
41861;SDS011;27537;57.134;-2.136;2022-07-23T11:02:39;9.43;;;3.38;;
41861;SDS011;27537;57.134;-2.136;2022-07-23T11:08:21;13.27;;;2.95;;
41861;SDS011;27537;57.134;-2.136;2022-07-23T11:10:42;11.52;;;2.97;;
41861;SDS011;27537;57.134;-2.136;2022-07-23T11:13:30;11.73;;;2.80;;
41861;SDS011;27537;57.134;-2.136;2022-07-23T11:32:02;12.88;;;3.42;;
41861;SDS011;27537;57.134;-2.136;2022-07-23T11:34:40;10.23;;;3.47;;
41861;SDS011;27537;57.134;-2.136;2022-07-23T11:37:26;15.20;;;4.72;;
41861;SDS011;27537;57.134;-2.136;2022-07-23T11:39:59;13.73;;;4.28;;
41861;SDS011;27537;57.134;-2.136;2022-07-23T11:42:28;11.40;;;4.07;;
41861;SDS011;27537;57.134;-2.136;2022-07-23T11:44:57;14.95;;;4.93;;
41861;SDS011;27537;57.134;-2.136;2022-07-23T11:47:24;9.60;;;4.20;;
41861;SDS011;27537;57.134;-2.136;2022-07-23T11:49:56;13.57;;;4.30;;
41861;SDS011;27537;57.134;-2.136;2022-07-23T11:52:25;8.10;;;3.38;;
41861;SDS011;27537;57.134;-2.136;2022-07-23T11:54:59;12.68;;;3.58;;
41861;SDS011;27537;57.134;-2.136;2022-07-23T11:57:29;16.45;;;4.75;;
41861;SDS011;27537;57.134;-2.136;2022-07-23T12:00:31;10.18;;;3.47;;
41861;SDS011;27537;57.134;-2.136;2022-07-23T12:02:55;13.10;;;3.33;;
41861;SDS011;27537;57.134;-2.136;2022-07-23T12:05:28;8.15;;;3.00;;
41861;SDS011;27537;57.134;-2.136;2022-07-23T12:08:00;9.65;;;3.40;;
41861;SDS011;27537;57.134;-2.136;2022-07-23T12:10:30;10.55;;;3.80;;
41861;SDS011;27537;57.134;-2.136;2022-07-23T12:13:02;12.23;;;4.40;;
41861;SDS011;27537;57.134;-2.136;2022-07-23T12:15:32;11.90;;;4.38;;
41861;SDS011;27537;57.134;-2.136;2022-07-23T12:18:06;12.40;;;4.28;;
41861;SDS011;27537;57.134;-2.136;2022-07-23T12:20:44;11.40;;;4.15;;
41861;SDS011;27537;57.134;-2.136;2022-07-23T12:23:14;10.07;;;3.95;;
41861;SDS011;27537;57.134;-2.136;2022-07-23T12:25:46;13.60;;;4.50;;
41861;SDS011;27537;57.134;-2.136;2022-07-23T12:33:20;10.48;;;4.43;;
41861;SDS011;27537;57.134;-2.136;2022-07-23T12:35:48;9.35;;;3.47;;
41861;SDS011;27537;57.134;-2.136;2022-07-23T12:38:16;10.63;;;4.15;;
41861;SDS011;27537;57.134;-2.136;2022-07-23T12:40:49;9.20;;;3.88;;
41861;SDS011;27537;57.134;-2.136;2022-07-23T12:43:28;13.13;;;4.43;;
41861;SDS011;27537;57.134;-2.136;2022-07-23T12:46:05;11.38;;;4.50;;
41861;SDS011;27537;57.134;-2.136;2022-07-23T12:48:34;10.40;;;3.55;;
41861;SDS011;27537;57.134;-2.136;2022-07-23T12:51:08;9.80;;;4.13;;
41861;SDS011;27537;57.134;-2.136;2022-07-23T12:53:44;12.57;;;3.92;;
41861;SDS011;27537;57.134;-2.136;2022-07-23T12:56:32;9.65;;;4.03;;
41861;SDS011;27537;57.134;-2.136;2022-07-23T13:01:33;13.93;;;5.17;;
41861;SDS011;27537;57.134;-2.136;2022-07-23T13:06:49;12.38;;;4.80;;
41861;SDS011;27537;57.134;-2.136;2022-07-23T13:09:18;11.80;;;5.13;;
41861;SDS011;27537;57.134;-2.136;2022-07-23T13:11:51;9.15;;;4.85;;
41861;SDS011;27537;57.134;-2.136;2022-07-23T13:14:22;10.45;;;4.93;;
41861;SDS011;27537;57.134;-2.136;2022-07-23T13:16:52;12.55;;;5.07;;
41861;SDS011;27537;57.134;-2.136;2022-07-23T13:19:22;12.50;;;4.95;;
41861;SDS011;27537;57.134;-2.136;2022-07-23T13:21:51;10.48;;;4.28;;
41861;SDS011;27537;57.134;-2.136;2022-07-23T13:24:20;9.30;;;4.03;;
41861;SDS011;27537;57.134;-2.136;2022-07-23T13:26:47;9.85;;;3.85;;
41861;SDS011;27537;57.134;-2.136;2022-07-23T13:29:17;15.32;;;5.82;;
41861;SDS011;27537;57.134;-2.136;2022-07-23T13:32:04;13.40;;;5.53;;
41861;SDS011;27537;57.134;-2.136;2022-07-23T13:34:36;15.20;;;5.37;;
41861;SDS011;27537;57.134;-2.136;2022-07-23T13:37:06;11.38;;;5.05;;
41861;SDS011;27537;57.134;-2.136;2022-07-23T13:39:33;10.38;;;5.43;;
41861;SDS011;27537;57.134;-2.136;2022-07-23T13:42:04;13.32;;;6.25;;
41861;SDS011;27537;57.134;-2.136;2022-07-23T13:44:33;12.90;;;6.28;;
41861;SDS011;27537;57.134;-2.136;2022-07-23T13:47:01;10.98;;;5.82;;
41861;SDS011;27537;57.134;-2.136;2022-07-23T13:49:29;13.63;;;6.45;;
41861;SDS011;27537;57.134;-2.136;2022-07-23T13:51:56;17.25;;;6.97;;
41861;SDS011;27537;57.134;-2.136;2022-07-23T13:54:24;14.48;;;5.55;;
41861;SDS011;27537;57.134;-2.136;2022-07-23T13:56:54;14.68;;;6.88;;
41861;SDS011;27537;57.134;-2.136;2022-07-23T13:59:20;18.15;;;6.60;;
41861;SDS011;27537;57.134;-2.136;2022-07-23T14:01:52;13.45;;;6.68;;
41861;SDS011;27537;57.134;-2.136;2022-07-23T14:04:39;14.65;;;7.00;;
41861;SDS011;27537;57.134;-2.136;2022-07-23T14:07:07;15.48;;;6.38;;
41861;SDS011;27537;57.134;-2.136;2022-07-23T14:09:34;14.98;;;6.55;;
41861;SDS011;27537;57.134;-2.136;2022-07-23T14:12:01;13.10;;;5.93;;
41861;SDS011;27537;57.134;-2.136;2022-07-23T14:14:28;15.05;;;6.80;;
41861;SDS011;27537;57.134;-2.136;2022-07-23T14:16:55;15.07;;;6.22;;
41861;SDS011;27537;57.134;-2.136;2022-07-23T14:19:23;14.35;;;6.30;;
41861;SDS011;27537;57.134;-2.136;2022-07-23T14:21:50;14.43;;;6.78;;
41861;SDS011;27537;57.134;-2.136;2022-07-23T14:24:16;12.80;;;5.47;;
41861;SDS011;27537;57.134;-2.136;2022-07-23T14:26:44;13.75;;;7.32;;
41861;SDS011;27537;57.134;-2.136;2022-07-23T14:29:10;13.38;;;5.78;;
41861;SDS011;27537;57.134;-2.136;2022-07-23T14:31:37;12.27;;;6.82;;
41861;SDS011;27537;57.134;-2.136;2022-07-23T14:34:05;16.38;;;6.68;;
41861;SDS011;27537;57.134;-2.136;2022-07-23T14:36:33;18.48;;;6.80;;
41861;SDS011;27537;57.134;-2.136;2022-07-23T14:39:00;12.98;;;5.93;;
41861;SDS011;27537;57.134;-2.136;2022-07-23T14:41:28;18.48;;;7.28;;
41861;SDS011;27537;57.134;-2.136;2022-07-23T14:43:55;19.95;;;7.10;;
41861;SDS011;27537;57.134;-2.136;2022-07-23T14:46:22;15.82;;;7.93;;
41861;SDS011;27537;57.134;-2.136;2022-07-23T14:48:49;15.07;;;7.07;;
41861;SDS011;27537;57.134;-2.136;2022-07-23T14:51:16;12.77;;;6.32;;
41861;SDS011;27537;57.134;-2.136;2022-07-23T14:53:44;14.55;;;6.43;;
41861;SDS011;27537;57.134;-2.136;2022-07-23T14:56:11;19.95;;;8.70;;
41861;SDS011;27537;57.134;-2.136;2022-07-23T14:58:40;13.57;;;6.97;;
41861;SDS011;27537;57.134;-2.136;2022-07-23T15:01:08;17.92;;;7.43;;
41861;SDS011;27537;57.134;-2.136;2022-07-23T15:03:35;18.52;;;8.25;;
41861;SDS011;27537;57.134;-2.136;2022-07-23T15:06:08;17.08;;;8.40;;
41861;SDS011;27537;57.134;-2.136;2022-07-23T15:08:35;17.63;;;8.98;;
41861;SDS011;27537;57.134;-2.136;2022-07-23T15:11:02;16.35;;;7.53;;
41861;SDS011;27537;57.134;-2.136;2022-07-23T15:13:29;13.45;;;7.45;;
41861;SDS011;27537;57.134;-2.136;2022-07-23T15:15:57;18.38;;;7.25;;
41861;SDS011;27537;57.134;-2.136;2022-07-23T15:18:24;17.77;;;9.18;;
41861;SDS011;27537;57.134;-2.136;2022-07-23T15:20:51;11.23;;;6.13;;
41861;SDS011;27537;57.134;-2.136;2022-07-23T15:23:18;18.45;;;6.90;;
41861;SDS011;27537;57.134;-2.136;2022-07-23T15:25:45;17.58;;;8.18;;
41861;SDS011;27537;57.134;-2.136;2022-07-23T15:28:16;14.75;;;8.00;;
41861;SDS011;27537;57.134;-2.136;2022-07-23T15:30:47;10.88;;;5.93;;
41861;SDS011;27537;57.134;-2.136;2022-07-23T15:33:19;10.88;;;5.47;;
41861;SDS011;27537;57.134;-2.136;2022-07-23T15:35:47;12.82;;;5.93;;
41861;SDS011;27537;57.134;-2.136;2022-07-23T15:38:15;14.43;;;6.68;;
41861;SDS011;27537;57.134;-2.136;2022-07-23T15:40:52;16.00;;;6.65;;
41861;SDS011;27537;57.134;-2.136;2022-07-23T15:43:21;17.00;;;7.00;;
41861;SDS011;27537;57.134;-2.136;2022-07-23T15:45:51;14.10;;;6.50;;
41861;SDS011;27537;57.134;-2.136;2022-07-23T15:48:19;13.40;;;6.20;;